Time;durP1;ratioP1;P1;durP2;ratioP2;P2;SDS_P1;SDS_P2;PMS_P1;PMS_P2;Temp;Humidity;BMP_temperature;BMP_pressure;BME280_temperature;BME280_humidity;BME280_pressure;Samples;Min_cycle;Max_cycle;Signal;HPM_P1;HPM_P2
2023/11/03 00:00:00;;;;;;;35.00;21.20;;;;;;;2.76;100.00;100378.67;109462;1251;73827;-57
2023/11/03 00:02:30;;;;;;;31.50;20.70;;;;;;;2.73;100.00;100374.79;109442;1253;67027;-56
2023/11/03 00:05:00;;;;;;;32.80;21.50;;;;;;;2.71;100.00;100370.17;109464;1251;72702;-58
2023/11/03 00:07:30;;;;;;;32.70;22.00;;;;;;;2.69;100.00;100367.90;109408;1251;60520;-56
2023/11/03 00:09:58;;;;;;;36.10;22.70;;;;;;;2.67;100.00;100373.84;109539;1251;59087;-56
2023/11/03 00:12:25;;;;;;;30.70;20.80;;;;;;;2.68;100.00;100371.23;109472;1251;73499;-57
2023/11/03 00:14:53;;;;;;;30.60;21.00;;;;;;;2.67;100.00;100366.17;109419;1251;67430;-61
2023/11/03 00:17:20;;;;;;;34.00;22.90;;;;;;;2.67;100.00;100370.08;109451;1255;72698;-56
2023/11/03 00:19:48;;;;;;;35.80;21.90;;;;;;;2.68;100.00;100373.98;109464;1250;60183;-58
2023/11/03 00:22:18;;;;;;;32.00;21.50;;;;;;;2.65;100.00;100372.54;109512;1251;58909;-57
2023/11/03 00:24:45;;;;;;;31.40;20.50;;;;;;;2.56;100.00;100376.90;109439;1251;74729;-57
2023/11/03 00:27:14;;;;;;;30.50;19.20;;;;;;;2.47;100.00;100381.58;109452;1251;66890;-57
2023/11/03 00:29:41;;;;;;;36.30;20.50;;;;;;;2.41;100.00;100378.42;109531;1253;71449;-58
2023/11/03 00:32:09;;;;;;;28.30;18.50;;;;;;;2.38;100.00;100375.64;109468;1251;61279;-55
2023/11/03 00:34:38;;;;;;;27.80;17.90;;;;;;;2.34;100.00;100377.17;109483;1251;60140;-62
2023/11/03 00:37:07;;;;;;;29.70;19.10;;;;;;;2.31;100.00;100380.17;109443;1251;73459;-58
2023/11/03 00:39:34;;;;;;;28.00;17.80;;;;;;;2.27;100.00;100379.46;109502;1253;65292;-56
2023/11/03 00:42:03;;;;;;;26.20;17.90;;;;;;;2.23;100.00;100378.95;109522;1251;72667;-58
2023/11/03 00:44:32;;;;;;;26.90;17.50;;;;;;;2.21;100.00;100376.40;109381;1251;59624;-58
2023/11/03 00:47:00;;;;;;;25.40;17.10;;;;;;;2.18;100.00;100378.14;109454;1251;59475;-59
2023/11/03 00:49:29;;;;;;;28.10;16.60;;;;;;;2.14;100.00;100379.48;109448;1250;74731;-58
2023/11/03 00:51:57;;;;;;;34.30;21.80;;;;;;;2.10;100.00;100381.20;109398;1251;67007;-58
2023/11/03 00:54:24;;;;;;;34.80;23.20;;;;;;;2.07;100.00;100386.91;109516;1251;72685;-56
2023/11/03 00:56:52;;;;;;;40.30;26.30;;;;;;;2.04;100.00;100390.93;109451;1251;59463;-64
2023/11/03 00:59:19;;;;;;;35.70;23.00;;;;;;;2.03;100.00;100389.54;109389;1255;59067;-58
2023/11/03 01:01:47;;;;;;;28.90;20.50;;;;;;;2.01;100.00;100387.92;109504;1251;74639;-58
2023/11/03 01:04:15;;;;;;;43.20;22.00;;;;;;;1.99;100.00;100386.40;109428;1251;65663;-56
2023/11/03 01:06:43;;;;;;;27.30;18.60;;;;;;;1.98;100.00;100386.28;109487;1253;72939;-60
2023/11/03 01:09:10;;;;;;;31.50;19.50;;;;;;;1.98;100.00;100391.98;109368;1251;59316;-55
2023/11/03 01:11:38;;;;;;;27.80;18.10;;;;;;;1.97;100.00;100388.81;109513;1251;58967;-56
2023/11/03 01:14:06;;;;;;;29.00;18.10;;;;;;;1.98;100.00;100386.83;109471;1254;74529;-56
2023/11/03 01:16:33;;;;;;;31.10;18.40;;;;;;;1.98;100.00;100380.36;109484;1251;67061;-55
2023/11/03 01:19:04;;;;;;;26.80;16.50;;;;;;;1.94;100.00;100386.13;109392;1253;72698;-56
2023/11/03 01:21:32;;;;;;;26.00;16.50;;;;;;;1.90;100.00;100383.84;109456;1256;59008;-56
2023/11/03 01:24:00;;;;;;;24.00;18.10;;;;;;;1.88;100.00;100384.73;109523;1251;59337;-55
2023/11/03 01:26:27;;;;;;;25.30;16.50;;;;;;;1.86;100.00;100384.49;109421;1251;73477;-55
2023/11/03 01:28:56;;;;;;;21.20;15.60;;;;;;;1.85;100.00;100386.82;109456;1251;66968;-60
2023/11/03 01:31:24;;;;;;;23.20;15.20;;;;;;;1.83;100.00;100393.67;109480;1251;71946;-56
2023/11/03 01:33:51;;;;;;;21.90;16.60;;;;;;;1.81;100.00;100399.65;109475;1250;58986;-56
2023/11/03 01:36:19;;;;;;;23.50;17.40;;;;;;;1.83;100.00;100397.80;109487;1251;62312;-56
2023/11/03 01:38:48;;;;;;;24.70;16.40;;;;;;;1.84;100.00;100393.29;109479;1251;74679;-57
2023/11/03 01:41:17;;;;;;;21.00;15.90;;;;;;;1.83;100.00;100396.39;109444;1256;65633;-58
2023/11/03 01:44:09;;;;;;;20.30;14.20;;;;;;;1.81;100.00;100400.33;109429;1252;71908;-58
2023/11/03 01:46:38;;;;;;;17.00;13.00;;;;;;;1.79;100.00;100397.98;109380;1254;58943;-59
2023/11/03 01:49:06;;;;;;;20.30;15.50;;;;;;;1.76;100.00;100398.73;109484;1251;58990;-56
2023/11/03 01:51:35;;;;;;;16.60;12.20;;;;;;;1.70;100.00;100396.80;109390;1251;74159;-55
2023/11/03 01:54:03;;;;;;;15.90;11.90;;;;;;;1.65;100.00;100398.16;109345;1251;67039;-55
2023/11/03 01:56:32;;;;;;;16.30;11.60;;;;;;;1.61;100.00;100399.38;109351;1251;71531;-58
2023/11/03 01:59:02;;;;;;;14.80;11.70;;;;;;;1.57;100.00;100396.30;109192;1257;198912;-56
2023/11/03 02:01:29;;;;;;;16.80;11.60;;;;;;;1.54;100.00;100394.84;109503;1251;58867;-56
2023/11/03 02:03:57;;;;;;;13.00;10.60;;;;;;;1.51;100.00;100391.25;109465;1250;73632;-56
2023/11/03 02:06:25;;;;;;;17.00;10.60;;;;;;;1.47;100.00;100385.91;109407;1256;65545;-56
2023/11/03 02:08:53;;;;;;;13.50;10.50;;;;;;;1.44;100.00;100383.42;109406;1256;73110;-57
2023/11/03 02:11:26;;;;;;;13.50;10.90;;;;;;;1.44;100.00;100380.55;109434;1253;59684;-56
2023/11/03 02:13:54;;;;;;;15.50;11.30;;;;;;;1.45;100.00;100382.33;109474;1251;59221;-55
2023/11/03 02:16:22;;;;;;;15.10;10.90;;;;;;;1.45;100.00;100384.23;109361;1251;73446;-58
2023/11/03 02:18:50;;;;;;;13.40;10.00;;;;;;;1.44;100.00;100387.50;109384;1251;69231;-62
2023/11/03 02:21:19;;;;;;;13.50;10.00;;;;;;;1.44;100.00;100383.95;109441;1251;72742;-56
2023/11/03 02:23:46;;;;;;;13.00;10.20;;;;;;;1.44;100.00;100381.55;109425;1254;61051;-56
2023/11/03 02:26:14;;;;;;;16.80;10.40;;;;;;;1.44;100.00;100382.71;109487;1251;59236;-56
2023/11/03 02:28:41;;;;;;;20.20;14.00;;;;;;;1.44;100.00;100382.55;109439;1251;74636;-63
2023/11/03 02:31:09;;;;;;;17.80;13.30;;;;;;;1.42;100.00;100380.13;109507;1251;65656;-55
2023/11/03 02:33:37;;;;;;;20.00;13.70;;;;;;;1.40;100.00;100382.52;109452;1251;71132;-56
2023/11/03 02:36:05;;;;;;;19.50;13.30;;;;;;;1.39;100.00;100384.02;109400;1251;60023;-55
2023/11/03 02:38:33;;;;;;;19.10;13.80;;;;;;;1.38;100.00;100387.18;109442;1251;59034;-62
2023/11/03 02:41:00;;;;;;;18.70;14.10;;;;;;;1.38;100.00;100389.90;109469;1252;74671;-55
2023/11/03 02:43:28;;;;;;;21.10;14.80;;;;;;;1.37;100.00;100398.04;109449;1251;65715;-56
2023/11/03 02:45:56;;;;;;;17.50;13.40;;;;;;;1.31;100.00;100398.48;109414;1251;72690;-55
2023/11/03 02:48:23;;;;;;;18.10;14.60;;;;;;;1.27;100.00;100394.55;109433;1251;61056;-55
2023/11/03 02:50:51;;;;;;;17.60;14.00;;;;;;;1.24;100.00;100400.92;109434;1251;59407;-56
2023/11/03 02:53:19;;;;;;;23.60;14.90;;;;;;;1.20;100.00;100396.60;109499;1251;73479;-58
2023/11/03 02:55:46;;;;;;;19.90;15.80;;;;;;;1.17;100.00;100396.48;109453;1251;67068;-56
2023/11/03 02:58:14;;;;;;;21.80;16.70;;;;;;;1.16;100.00;100400.01;109445;1251;71459;-55
2023/11/03 03:00:43;;;;;;;18.30;14.70;;;;;;;1.15;100.00;100399.87;109440;1251;60857;-56
2023/11/03 03:03:11;;;;;;;18.00;14.30;;;;;;;1.13;100.00;100406.03;109430;1251;58913;-56
2023/11/03 03:05:39;;;;;;;20.00;14.50;;;;;;;1.13;100.00;100407.24;109448;1251;73412;-56
2023/11/03 03:08:06;;;;;;;19.40;13.70;;;;;;;1.17;100.00;100408.66;109482;1251;67180;-55
2023/11/03 03:10:34;;;;;;;21.80;15.00;;;;;;;1.20;100.00;100415.94;109376;1253;72676;-59
2023/11/03 03:13:04;;;;;;;22.90;14.00;;;;;;;1.24;100.00;100419.95;109323;1251;62955;-57
2023/11/03 03:15:33;;;;;;;20.00;13.60;;;;;;;1.28;100.00;100417.54;109426;1251;59442;-55
2023/11/03 03:18:00;;;;;;;20.10;14.10;;;;;;;1.33;100.00;100419.94;109398;1252;73431;-56
2023/11/03 03:20:28;;;;;;;21.80;14.30;;;;;;;1.36;100.00;100419.98;109435;1251;65801;-56
2023/11/03 03:22:56;;;;;;;20.60;14.70;;;;;;;1.39;100.00;100421.16;109395;1251;70473;-56
2023/11/03 03:25:23;;;;;;;18.30;14.00;;;;;;;1.40;100.00;100422.41;109378;1252;60337;-58
2023/11/03 03:27:55;;;;;;;17.60;13.40;;;;;;;1.39;100.00;100421.48;109426;1251;60013;-56
2023/11/03 03:30:22;;;;;;;14.20;11.80;;;;;;;1.37;100.00;100425.91;109460;1251;76147;-56
2023/11/03 03:32:50;;;;;;;16.70;13.00;;;;;;;1.37;100.00;100429.02;109336;1251;66959;-58
2023/11/03 03:35:18;;;;;;;15.80;11.40;;;;;;;1.39;100.00;100428.34;109490;1251;72571;-56
2023/11/03 03:37:45;;;;;;;21.40;12.30;;;;;;;1.42;100.00;100426.39;109410;1251;59445;-57
2023/11/03 03:40:14;;;;;;;18.70;11.60;;;;;;;1.46;100.00;100430.84;109437;1251;59425;-56
2023/11/03 03:42:42;;;;;;;17.10;11.00;;;;;;;1.50;100.00;100429.07;109403;1251;74666;-57
2023/11/03 03:45:10;;;;;;;15.90;10.20;;;;;;;1.54;100.00;100425.31;109444;1252;66949;-57
2023/11/03 03:47:38;;;;;;;13.30;10.30;;;;;;;1.56;100.00;100423.94;109399;1254;72691;-56
2023/11/03 03:50:06;;;;;;;14.90;12.10;;;;;;;1.59;100.00;100423.55;109398;1254;59539;-56
2023/11/03 03:52:34;;;;;;;13.40;10.70;;;;;;;1.61;100.00;100423.83;109413;1256;58937;-56
2023/11/03 03:55:02;;;;;;;16.40;12.00;;;;;;;1.66;100.00;100433.95;109331;1254;74716;-56
2023/11/03 03:57:30;;;;;;;12.00;9.70;;;;;;;1.70;100.00;100431.40;109462;1252;66935;-57
2023/11/03 03:59:57;;;;;;;14.90;10.20;;;;;;;1.73;100.00;100429.77;109411;1252;72828;-58
2023/11/03 04:02:25;;;;;;;18.30;10.70;;;;;;;1.76;100.00;100427.51;109411;1254;59370;-55
2023/11/03 04:04:52;;;;;;;13.40;10.00;;;;;;;1.76;100.00;100428.83;109381;1251;60091;-62
2023/11/03 04:07:20;;;;;;;11.00;9.20;;;;;;;1.76;100.00;100425.13;109403;1251;74863;-58
2023/11/03 04:09:48;;;;;;;13.40;10.00;;;;;;;1.75;100.00;100430.83;109439;1251;65952;-56
2023/11/03 04:12:16;;;;;;;11.00;9.10;;;;;;;1.74;100.00;100431.09;109418;1251;72743;-58
2023/11/03 04:14:43;;;;;;;13.90;10.50;;;;;;;1.74;100.00;100427.15;109429;1251;59830;-55
2023/11/03 04:17:11;;;;;;;13.70;10.10;;;;;;;1.74;100.00;100434.69;109390;1251;59509;-62
2023/11/03 04:19:38;;;;;;;15.10;10.80;;;;;;;1.74;100.00;100431.91;109470;1251;74649;-58
2023/11/03 04:22:07;;;;;;;14.00;11.20;;;;;;;1.73;100.00;100433.55;109401;1251;66932;-59
2023/11/03 04:24:34;;;;;;;14.50;10.50;;;;;;;1.73;100.00;100440.61;109464;1251;71261;-56
2023/11/03 04:27:02;;;;;;;13.00;9.90;;;;;;;1.72;100.00;100442.18;109419;1253;59611;-64
2023/11/03 04:29:30;;;;;;;14.90;10.90;;;;;;;1.71;100.00;100445.53;109374;1251;59549;-56
2023/11/03 04:31:58;;;;;;;13.30;10.50;;;;;;;1.70;100.00;100441.32;109494;1251;74796;-59
2023/11/03 04:34:25;;;;;;;12.40;10.20;;;;;;;1.70;100.00;100440.13;109436;1251;67037;-58
2023/11/03 04:36:54;;;;;;;14.20;10.90;;;;;;;1.73;100.00;100446.89;109414;1251;71203;-57
2023/11/03 04:39:22;;;;;;;14.20;10.80;;;;;;;1.80;100.00;100453.73;109397;1251;60903;-59
2023/11/03 04:41:49;;;;;;;15.20;11.80;;;;;;;1.90;100.00;100450.21;109442;1251;58928;-58
2023/11/03 04:44:17;;;;;;;13.20;10.30;;;;;;;2.00;100.00;100453.20;109431;1251;73410;-58
2023/11/03 04:46:44;;;;;;;12.70;9.30;;;;;;;2.06;100.00;100441.91;109484;1251;66350;-56
2023/11/03 04:49:12;;;;;;;12.80;9.20;;;;;;;2.11;100.00;100441.98;109399;1253;72752;-56
2023/11/03 04:51:41;;;;;;;13.60;9.70;;;;;;;2.17;100.00;100451.62;109346;1251;60649;-55
2023/11/03 04:54:09;;;;;;;13.20;9.30;;;;;;;2.23;100.00;100459.73;109421;1251;59435;-57
2023/11/03 04:56:37;;;;;;;15.60;9.50;;;;;;;2.29;100.00;100458.88;109442;1251;73480;-60
2023/11/03 04:59:05;;;;;;;12.50;8.50;;;;;;;2.33;100.00;100461.98;109453;1251;67077;-62
2023/11/03 05:01:33;;;;;;;10.20;8.30;;;;;;;2.35;100.00;100467.13;109378;1251;71378;-64
2023/11/03 05:04:01;;;;;;;12.00;8.30;;;;;;;2.37;100.00;100470.56;109444;1252;60163;-60
2023/11/03 05:06:29;;;;;;;12.20;8.70;;;;;;;2.39;100.00;100478.13;109433;1251;58947;-60
2023/11/03 05:08:56;;;;;;;11.40;8.90;;;;;;;2.41;100.00;100480.20;109382;1251;73460;-61
2023/11/03 05:11:24;;;;;;;12.40;8.60;;;;;;;2.43;100.00;100485.38;109409;1251;65967;-56
2023/11/03 05:13:52;;;;;;;12.60;8.90;;;;;;;2.46;100.00;100492.68;109404;1251;71923;-58
2023/11/03 05:16:20;;;;;;;13.20;8.90;;;;;;;2.48;100.00;100498.64;109412;1251;60149;-57
2023/11/03 05:18:48;;;;;;;11.30;8.60;;;;;;;2.51;100.00;100492.73;109456;1251;59058;-58
2023/11/03 05:21:15;;;;;;;13.00;8.70;;;;;;;2.56;100.00;100478.14;109401;1251;73450;-58
2023/11/03 05:23:43;;;;;;;11.70;8.70;;;;;;;2.61;100.00;100474.95;109376;1251;65636;-58
2023/11/03 05:26:12;;;;;;;11.70;8.30;;;;;;;2.69;100.00;100475.52;109406;1251;72896;-58
2023/11/03 05:28:40;;;;;;;11.50;9.30;;;;;;;2.77;100.00;100468.70;109382;1251;61768;-62
2023/11/03 05:31:09;;;;;;;15.70;9.00;;;;;;;2.84;100.00;100466.34;109449;1252;60099;-60
2023/11/03 05:33:36;;;;;;;13.50;9.40;;;;;;;2.90;100.00;100466.33;109388;1251;73583;-65
2023/11/03 05:36:04;;;;;;;11.60;8.90;;;;;;;2.98;100.00;100465.90;109419;1251;65371;-60
2023/11/03 05:38:33;;;;;;;12.70;9.70;;;;;;;3.04;100.00;100454.86;109425;1252;71493;-59
2023/11/03 05:41:01;;;;;;;12.50;9.10;;;;;;;3.12;100.00;100463.16;109412;1251;59996;-58
2023/11/03 05:43:30;;;;;;;10.60;8.80;;;;;;;3.18;100.00;100459.70;109433;1251;60078;-59
2023/11/03 05:45:57;;;;;;;14.40;9.50;;;;;;;3.23;100.00;100454.67;109493;1251;73551;-60
2023/11/03 05:48:25;;;;;;;13.90;10.30;;;;;;;3.28;100.00;100453.89;109432;1250;64671;-62
2023/11/03 05:50:53;;;;;;;12.60;9.60;;;;;;;3.31;100.00;100448.14;109388;1251;71449;-58
2023/11/03 05:53:20;;;;;;;14.50;11.40;;;;;;;3.38;100.00;100448.60;109405;1251;59952;-60
2023/11/03 05:55:48;;;;;;;12.60;10.10;;;;;;;3.47;100.00;100443.34;109401;1251;59318;-63
2023/11/03 05:58:16;;;;;;;13.20;10.20;;;;;;;3.71;100.00;100439.47;109465;1251;74773;-57
2023/11/03 06:00:44;;;;;;;12.10;9.30;;;;;;;4.03;100.00;100440.63;109406;1251;65790;-58
2023/11/03 06:03:13;;;;;;;12.90;10.30;;;;;;;4.42;100.00;100439.55;109334;1251;71560;-59
2023/11/03 06:05:41;;;;;;;11.70;9.10;;;;;;;4.81;100.00;100440.69;109354;1251;58934;-61
2023/11/03 06:08:09;;;;;;;13.00;9.50;;;;;;;5.07;100.00;100439.41;109423;1251;59335;-58
2023/11/03 06:10:36;;;;;;;10.40;8.30;;;;;;;5.26;100.00;100439.93;109441;1251;73045;-61
2023/11/03 06:13:05;;;;;;;12.10;9.70;;;;;;;5.35;100.00;100444.39;109412;1251;66957;-60
2023/11/03 06:15:32;;;;;;;11.80;9.20;;;;;;;5.37;100.00;100444.77;109412;1251;71460;-59
2023/11/03 06:18:00;;;;;;;12.10;9.60;;;;;;;5.35;100.00;100448.86;109335;1251;59618;-58
2023/11/03 06:20:28;;;;;;;13.50;9.10;;;;;;;5.39;100.00;100449.58;109423;1251;58856;-58
2023/11/03 06:22:55;;;;;;;11.00;9.20;;;;;;;5.51;100.00;100450.29;109390;1251;73132;-59
2023/11/03 06:25:23;;;;;;;11.80;9.00;;;;;;;5.67;100.00;100456.76;109439;1251;65682;-58
2023/11/03 06:27:51;;;;;;;14.40;10.10;;;;;;;5.77;100.00;100460.58;109347;1252;71613;-58
2023/11/03 06:30:18;;;;;;;14.00;10.10;;;;;;;5.79;100.00;100457.48;109388;1252;60173;-59
2023/11/03 06:32:46;;;;;;;13.70;10.80;;;;;;;5.87;100.00;100457.95;109427;1251;60076;-59
2023/11/03 06:35:14;;;;;;;13.80;10.00;;;;;;;6.01;100.00;100462.81;109470;1251;73204;-57
2023/11/03 06:37:42;;;;;;;13.10;10.30;;;;;;;6.13;100.00;100461.62;109386;1251;66857;-60
2023/11/03 06:40:10;;;;;;;14.30;11.70;;;;;;;6.25;100.00;100465.40;109446;1251;73416;-59
2023/11/03 06:42:38;;;;;;;15.40;10.60;;;;;;;6.42;100.00;100471.78;109398;1251;60093;-58
2023/11/03 06:45:07;;;;;;;13.00;10.20;;;;;;;6.61;100.00;100471.76;109426;1251;59514;-59
2023/11/03 06:47:35;;;;;;;14.60;10.50;;;;;;;6.90;100.00;100472.45;109375;1251;73839;-59
2023/11/03 06:50:04;;;;;;;12.40;10.00;;;;;;;7.27;100.00;100477.39;109409;1251;65786;-58
2023/11/03 06:52:32;;;;;;;14.50;10.10;;;;;;;7.68;100.00;100470.80;109422;1251;71599;-59
2023/11/03 06:54:59;;;;;;;15.40;11.10;;;;;;;8.11;100.00;100462.08;109499;1251;59220;-58
2023/11/03 06:57:27;;;;;;;11.80;9.30;;;;;;;8.62;100.00;100465.09;109305;1251;59432;-62
2023/11/03 06:59:55;;;;;;;10.40;8.60;;;;;;;9.04;100.00;100461.86;109471;1251;74693;-59
2023/11/03 07:02:22;;;;;;;11.50;9.00;;;;;;;9.47;100.00;100459.58;109423;1252;66979;-58
2023/11/03 07:04:50;;;;;;;11.90;8.20;;;;;;;9.96;100.00;100455.04;109441;1251;72601;-58
2023/11/03 07:07:20;;;;;;;8.80;7.60;;;;;;;10.54;100.00;100464.59;109400;1251;60085;-58
2023/11/03 07:09:48;;;;;;;8.90;7.20;;;;;;;10.97;100.00;100465.80;109396;1251;59994;-58
2023/11/03 07:12:16;;;;;;;10.40;8.10;;;;;;;11.42;100.00;100454.92;109444;1251;72704;-58
2023/11/03 07:14:45;;;;;;;9.90;8.20;;;;;;;11.91;100.00;100449.63;109446;1251;65621;-58
2023/11/03 07:17:13;;;;;;;9.10;7.50;;;;;;;12.24;100.00;100440.63;109420;1251;72883;-60
2023/11/03 07:19:42;;;;;;;10.90;7.30;;;;;;;12.50;100.00;100427.52;109369;1251;60856;-60
2023/11/03 07:22:10;;;;;;;9.60;7.60;;;;;;;12.66;100.00;100408.29;109438;1251;60176;-59
2023/11/03 07:24:38;;;;;;;9.50;6.60;;;;;;;12.77;100.00;100394.80;109481;1251;74840;-60
2023/11/03 07:27:05;;;;;;;10.40;8.30;;;;;;;12.87;100.00;100377.14;109451;1251;66863;-59
2023/11/03 07:29:34;;;;;;;7.60;6.20;;;;;;;12.96;100.00;100367.52;109340;1252;71434;-58
2023/11/03 07:32:03;;;;;;;8.00;6.30;;;;;;;13.15;100.00;100365.40;109401;1251;59367;-59
2023/11/03 07:34:31;;;;;;;8.10;6.70;;;;;;;13.30;100.00;100353.83;109432;1250;59046;-59
2023/11/03 07:36:58;;;;;;;8.20;5.90;;;;;;;13.42;100.00;100341.89;109371;1250;74650;-62
2023/11/03 07:39:26;;;;;;;8.20;5.20;;;;;;;13.52;100.00;100337.95;109382;1251;65690;-63
2023/11/03 07:41:54;;;;;;;7.80;5.70;;;;;;;13.56;100.00;100326.47;109393;1251;71549;-58
2023/11/03 07:44:21;;;;;;;8.10;5.90;;;;;;;13.60;100.00;100323.40;109381;1251;60134;-61
2023/11/03 07:46:49;;;;;;;8.60;6.30;;;;;;;13.74;100.00;100328.38;109431;1251;60142;-58
2023/11/03 07:49:17;;;;;;;6.40;5.60;;;;;;;13.88;100.00;100324.62;109482;1251;73549;-61
2023/11/03 07:51:47;;;;;;;7.30;5.80;;;;;;;13.97;100.00;100314.93;109409;1251;66021;-64
2023/11/03 07:54:15;;;;;;;7.70;5.70;;;;;;;14.02;100.00;100309.12;109413;1251;72916;-57
2023/11/03 07:56:43;;;;;;;7.50;6.00;;;;;;;14.07;100.00;100305.28;109390;1251;59091;-57
2023/11/03 07:59:11;;;;;;;8.10;6.50;;;;;;;14.12;100.00;100304.10;109429;1251;59375;-57
2023/11/03 08:01:38;;;;;;;6.90;5.70;;;;;;;14.14;100.00;100293.74;109438;1251;74778;-62
2023/11/03 08:04:06;;;;;;;8.30;6.30;;;;;;;14.25;100.00;100291.04;109434;1251;67387;-59
2023/11/03 08:06:34;;;;;;;6.90;5.50;;;;;;;14.41;100.00;100296.04;109370;1251;73576;-61
2023/11/03 08:09:03;;;;;;;7.20;4.80;;;;;;;14.57;100.00;100298.20;109355;1251;62057;-57
2023/11/03 08:11:31;;;;;;;6.20;5.00;;;;;;;14.72;100.00;100294.81;109460;1251;59028;-57
2023/11/03 08:13:59;;;;;;;6.20;4.50;;;;;;;14.79;100.00;100293.73;109450;1251;74771;-60
2023/11/03 08:16:27;;;;;;;5.40;4.70;;;;;;;14.86;100.00;100294.19;109496;1251;70456;-58
2023/11/03 08:18:57;;;;;;;5.10;4.10;;;;;;;14.93;100.00;100289.34;109414;1251;72991;-59
2023/11/03 08:21:26;;;;;;;6.90;4.50;;;;;;;15.02;100.00;100278.98;109431;1251;60500;-56
2023/11/03 08:23:54;;;;;;;6.00;4.00;;;;;;;15.04;100.00;100276.67;109414;1251;60515;-61
2023/11/03 08:26:21;;;;;;;5.80;4.50;;;;;;;15.04;100.00;100278.29;109362;1252;74729;-59
2023/11/03 08:28:49;;;;;;;6.90;5.00;;;;;;;15.00;100.00;100279.98;109444;1251;66811;-58
2023/11/03 08:31:17;;;;;;;9.10;5.40;;;;;;;15.05;100.00;100282.61;109398;1251;71385;-59
2023/11/03 08:33:44;;;;;;;6.20;4.70;;;;;;;15.01;100.00;100273.39;109445;1251;59026;-59
2023/11/03 08:36:12;;;;;;;6.10;4.70;;;;;;;15.03;100.00;100264.89;109361;1250;60175;-61
2023/11/03 08:38:40;;;;;;;6.80;5.10;;;;;;;15.14;100.00;100259.11;109401;1250;75163;-57
2023/11/03 08:41:09;;;;;;;6.40;5.30;;;;;;;15.22;100.00;100253.65;109395;1252;67677;-58
2023/11/03 08:43:38;;;;;;;6.80;5.20;;;;;;;15.23;100.00;100246.02;109389;1252;73254;-59
2023/11/03 08:46:06;;;;;;;5.60;4.70;;;;;;;15.17;100.00;100240.48;109294;1252;58954;-59
2023/11/03 08:48:36;;;;;;;5.70;4.60;;;;;;;15.04;100.00;100238.19;109435;1252;59030;-57
2023/11/03 08:51:04;;;;;;;6.20;5.00;;;;;;;14.86;100.00;100234.83;109419;1251;75749;-57
2023/11/03 08:53:31;;;;;;;5.30;4.40;;;;;;;14.82;100.00;100238.04;109456;1251;70113;-56
2023/11/03 08:55:59;;;;;;;6.90;4.90;;;;;;;14.92;100.00;100233.90;109348;1251;74774;-58
2023/11/03 08:58:27;;;;;;;5.20;4.20;;;;;;;14.98;100.00;100226.71;109372;1252;61104;-58
2023/11/03 09:00:56;;;;;;;6.20;4.80;;;;;;;14.97;100.00;100220.63;109415;1252;60929;-58
2023/11/03 09:03:28;;;;;;;6.40;4.80;;;;;;;14.90;100.00;100217.37;109392;1251;76720;-58
2023/11/03 09:05:57;;;;;;;5.40;3.70;;;;;;;14.97;100.00;100215.17;109384;1251;69635;-57
2023/11/03 09:08:25;;;;;;;5.60;4.00;;;;;;;15.12;100.00;100217.29;109417;1251;73275;-57
2023/11/03 09:10:52;;;;;;;5.00;3.60;;;;;;;15.12;100.00;100204.52;109462;1251;60911;-57
2023/11/03 09:13:20;;;;;;;5.00;3.60;;;;;;;14.97;100.00;100204.89;109480;1251;60082;-58
2023/11/03 09:15:48;;;;;;;4.90;3.40;;;;;;;14.70;100.00;100196.54;109433;1251;74373;-57
2023/11/03 09:18:19;;;;;;;4.90;3.40;;;;;;;14.62;100.00;100196.13;109361;1251;65632;-57
2023/11/03 09:20:47;;;;;;;4.90;3.50;;;;;;;14.76;100.00;100191.49;109449;1251;72638;-56
2023/11/03 09:23:15;;;;;;;5.80;3.60;;;;;;;15.00;100.00;100196.22;109412;1250;59025;-57
2023/11/03 09:25:43;;;;;;;6.60;3.60;;;;;;;15.22;100.00;100186.98;109321;1250;61047;-62
2023/11/03 09:28:10;;;;;;;5.00;3.10;;;;;;;15.29;100.00;100189.48;109462;1251;73445;-56
2023/11/03 09:30:38;;;;;;;5.60;3.60;;;;;;;15.10;100.00;100180.06;109451;1251;70705;-58
2023/11/03 09:33:07;;;;;;;4.80;3.10;;;;;;;14.94;100.00;100179.34;109431;1251;74805;-56
2023/11/03 09:35:35;;;;;;;6.40;4.70;;;;;;;14.85;100.00;100174.55;109436;1250;60303;-59
2023/11/03 09:38:03;;;;;;;5.40;3.90;;;;;;;14.85;100.00;100171.97;109399;1251;60987;-57
2023/11/03 09:40:34;;;;;;;5.90;3.80;;;;;;;14.95;100.00;100174.02;109462;1251;75198;-57
2023/11/03 09:43:03;;;;;;;6.40;4.00;;;;;;;15.00;100.00;100166.24;109376;1251;66954;-57
2023/11/03 09:45:33;;;;;;;5.60;3.70;;;;;;;15.10;100.00;100163.90;109457;1251;74108;-60
2023/11/03 09:48:00;;;;;;;4.60;2.90;;;;;;;15.21;100.00;100165.39;109278;1251;62468;-58
2023/11/03 09:50:28;;;;;;;6.00;3.50;;;;;;;15.26;100.00;100166.47;109382;1251;61715;-58
2023/11/03 09:52:58;;;;;;;6.00;3.10;;;;;;;15.33;100.00;100167.33;109445;1250;75983;-58
2023/11/03 09:55:26;;;;;;;4.60;3.00;;;;;;;15.36;100.00;100163.84;109376;1251;67894;-58
2023/11/03 09:58:01;;;;;;;5.40;3.10;;;;;;;15.29;100.00;100167.58;109421;1251;73271;-58
2023/11/03 10:00:29;;;;;;;4.30;2.90;;;;;;;15.09;100.00;100177.73;109445;1251;62216;-58
2023/11/03 10:02:57;;;;;;;5.60;3.90;;;;;;;14.89;100.00;100177.36;109462;1250;61011;-59
2023/11/03 10:05:27;;;;;;;5.40;3.50;;;;;;;14.66;100.00;100169.16;109408;1251;73451;-63
2023/11/03 10:08:18;;;;;;;6.30;3.10;;;;;;;14.44;100.00;100167.21;109452;1253;69818;-55
2023/11/03 10:10:47;;;;;;;5.70;3.50;;;;;;;14.28;100.00;100170.74;109474;1251;74800;-57
2023/11/03 10:13:15;;;;;;;5.70;3.20;;;;;;;14.33;100.00;100175.48;109393;1251;60090;-64
2023/11/03 10:15:44;;;;;;;5.30;3.10;;;;;;;14.46;100.00;100171.39;109460;1251;61059;-56
2023/11/03 10:18:12;;;;;;;5.10;3.80;;;;;;;14.71;100.00;100171.45;109477;1251;77230;-56
2023/11/03 10:20:41;;;;;;;5.60;3.80;;;;;;;15.00;100.00;100169.44;109451;1251;70621;-56
2023/11/03 10:23:09;;;;;;;5.50;3.10;;;;;;;15.26;100.00;100164.02;109397;1251;75033;-64
2023/11/03 10:25:37;;;;;;;4.80;3.50;;;;;;;15.49;100.00;100155.63;109406;1252;59230;-57
2023/11/03 10:28:05;;;;;;;6.20;4.40;;;;;;;15.64;100.00;100153.36;109427;1251;61274;-59
2023/11/03 10:30:33;;;;;;;5.30;4.00;;;;;;;15.67;100.00;100148.13;109299;1251;75581;-55
2023/11/03 10:33:01;;;;;;;6.00;3.70;;;;;;;15.48;100.00;100143.81;109447;1250;70624;-61
2023/11/03 10:35:29;;;;;;;6.80;4.10;;;;;;;15.17;100.00;100132.66;109284;1251;71404;-57
2023/11/03 10:37:57;;;;;;;6.30;4.00;;;;;;;14.93;100.00;100136.63;109370;1251;60139;-55
2023/11/03 10:40:25;;;;;;;5.10;3.80;;;;;;;14.72;100.00;100136.54;109405;1251;59060;-55
2023/11/03 10:42:52;;;;;;;7.50;5.00;;;;;;;14.65;100.00;100134.77;109435;1251;77089;-57
2023/11/03 10:45:23;;;;;;;8.80;6.10;;;;;;;14.61;100.00;100125.89;109354;1251;69591;-55
2023/11/03 10:48:15;;;;;;;7.80;5.50;;;;;;;14.67;100.00;100123.94;109416;1251;71639;-55
2023/11/03 10:50:59;;;;;;;10.10;6.80;;;;;;;14.79;100.00;100124.41;109344;1251;60573;-61
2023/11/03 10:53:41;;;;;;;8.90;5.40;;;;;;;14.94;100.00;100121.39;109483;1250;61073;-55
2023/11/03 10:56:10;;;;;;;7.40;4.80;;;;;;;15.10;100.00;100121.05;109476;1251;75711;-55
2023/11/03 10:58:57;;;;;;;6.40;3.90;;;;;;;15.16;100.00;100110.61;109436;1250;68919;-57
2023/11/03 11:01:58;;;;;;;8.90;4.50;;;;;;;15.10;100.00;100106.73;109322;1250;72771;-55
2023/11/03 11:04:32;;;;;;;5.70;4.30;;;;;;;15.05;100.00;100102.00;109381;1252;61554;-59
2023/11/03 11:07:06;;;;;;;6.10;3.80;;;;;;;14.93;100.00;100110.34;109145;1252;62191;-59
2023/11/03 11:09:47;;;;;;;5.90;4.30;;;;;;;14.72;100.00;100114.51;109405;1252;76619;-61